createdAt,value
2023-04-10T00:00:53.119Z,100.00
2023-04-10T00:03:20.842Z,100.00
2023-04-10T00:05:48.585Z,100.00
2023-04-10T00:08:17.620Z,100.00
2023-04-10T00:10:45.226Z,100.00
2023-04-10T00:13:12.836Z,100.00
2023-04-10T00:15:40.708Z,100.00
2023-04-10T00:18:08.577Z,100.00
2023-04-10T00:20:36.634Z,100.00
2023-04-10T00:23:04.212Z,100.00
2023-04-10T00:25:33.279Z,100.00
2023-04-10T00:28:00.894Z,100.00
2023-04-10T00:30:28.951Z,100.00
2023-04-10T00:32:56.639Z,100.00
2023-04-10T00:35:24.265Z,100.00
2023-04-10T00:37:52.421Z,100.00
2023-04-10T00:40:20.081Z,100.00
2023-04-10T00:42:49.124Z,100.00
2023-04-10T00:45:16.743Z,100.00
2023-04-10T00:47:44.510Z,100.00
2023-04-10T00:50:12.553Z,100.00
2023-04-10T00:52:40.240Z,100.00
2023-04-10T00:55:09.110Z,100.00
2023-04-10T00:57:37.062Z,100.00
2023-04-10T01:00:07.001Z,100.00
2023-04-10T01:02:34.708Z,100.00
2023-04-10T01:05:02.509Z,100.00
2023-04-10T01:07:43.024Z,100.00
2023-04-10T01:10:18.849Z,100.00
2023-04-10T01:12:57.775Z,100.00
2023-04-10T01:15:29.552Z,100.00
2023-04-10T01:18:05.645Z,100.00
2023-04-10T01:20:35.785Z,100.00
2023-04-10T01:23:33.119Z,100.00
2023-04-10T01:26:04.454Z,100.00
2023-04-10T01:28:57.276Z,100.00
2023-04-10T01:31:31.251Z,100.00
2023-04-10T01:34:04.358Z,100.00
2023-04-10T01:36:49.857Z,100.00
2023-04-10T01:39:20.306Z,100.00
2023-04-10T01:41:50.996Z,100.00
2023-04-10T01:44:22.554Z,100.00
2023-04-10T01:46:51.472Z,100.00
2023-04-10T01:49:20.120Z,100.00
2023-04-10T01:51:48.784Z,100.00
2023-04-10T01:54:18.051Z,100.00
2023-04-10T01:56:45.938Z,100.00
2023-04-10T01:59:13.709Z,100.00
2023-04-10T02:01:42.742Z,100.00
2023-04-10T02:04:10.478Z,100.00
2023-04-10T02:06:44.795Z,100.00
2023-04-10T02:09:19.119Z,100.00
2023-04-10T02:11:52.922Z,100.00
2023-04-10T02:14:23.064Z,100.00
2023-04-10T02:16:56.349Z,100.00
2023-04-10T02:19:26.102Z,100.00
2023-04-10T02:21:54.618Z,100.00
2023-04-10T02:24:22.806Z,100.00
2023-04-10T02:26:51.897Z,100.00
2023-04-10T02:29:20.380Z,100.00
2023-04-10T02:31:48.370Z,100.00
2023-04-10T02:34:17.337Z,100.00
2023-04-10T02:36:45.105Z,100.00
2023-04-10T02:39:12.742Z,100.00
2023-04-10T02:41:40.330Z,100.00
2023-04-10T02:44:07.949Z,100.00
2023-04-10T02:46:35.722Z,100.00
2023-04-10T02:49:04.355Z,100.00
2023-04-10T02:51:37.032Z,100.00
2023-04-10T02:54:04.736Z,100.00
2023-04-10T02:56:34.734Z,100.00
2023-04-10T02:59:02.329Z,100.00
2023-04-10T03:01:30.807Z,100.00
2023-04-10T03:03:59.027Z,100.00
2023-04-10T03:06:27.379Z,100.00
2023-04-10T03:08:56.651Z,100.00
2023-04-10T03:11:24.303Z,100.00
2023-04-10T03:13:52.240Z,100.00
2023-04-10T03:16:20.687Z,100.00
2023-04-10T03:18:48.614Z,100.00
2023-04-10T03:21:16.462Z,100.00
2023-04-10T03:23:44.036Z,100.00
2023-04-10T03:26:13.000Z,100.00
2023-04-10T03:28:41.378Z,100.00
2023-04-10T03:31:09.683Z,100.00
2023-04-10T03:33:37.462Z,100.00
2023-04-10T03:36:05.738Z,100.00
2023-04-10T03:38:33.484Z,100.00
2023-04-10T03:41:01.179Z,100.00
2023-04-10T03:43:30.608Z,100.00
2023-04-10T03:45:58.229Z,100.00
2023-04-10T03:48:28.047Z,100.00
2023-04-10T03:50:55.993Z,100.00
2023-04-10T03:53:23.714Z,100.00
2023-04-10T03:55:52.401Z,100.00
2023-04-10T03:58:20.408Z,100.00
2023-04-10T04:00:49.401Z,100.00
2023-04-10T04:03:17.380Z,100.00
2023-04-10T04:05:45.223Z,100.00
2023-04-10T04:08:14.030Z,100.00
2023-04-10T04:10:41.704Z,100.00
2023-04-10T04:13:09.324Z,100.00
2023-04-10T04:15:37.072Z,100.00
2023-04-10T04:18:06.268Z,100.00
2023-04-10T04:20:34.173Z,100.00
2023-04-10T04:23:01.803Z,100.00
2023-04-10T04:25:29.448Z,100.00
2023-04-10T04:27:57.568Z,100.00
2023-04-10T04:30:25.266Z,100.00
2023-04-10T04:32:52.998Z,100.00
2023-04-10T04:35:23.037Z,100.00
2023-04-10T04:37:50.716Z,100.00
2023-04-10T04:40:18.399Z,100.00
2023-04-10T04:42:46.131Z,100.00
2023-04-10T04:45:14.212Z,100.00
2023-04-10T04:47:41.871Z,100.00
2023-04-10T04:50:11.093Z,100.00
2023-04-10T04:52:40.067Z,100.00
2023-04-10T04:55:08.714Z,100.00
2023-04-10T04:57:36.318Z,100.00
2023-04-10T05:00:04.423Z,100.00
2023-04-10T05:02:32.166Z,100.00
2023-04-10T05:05:00.394Z,100.00
2023-04-10T05:07:28.205Z,100.00
2023-04-10T05:09:57.210Z,100.00
2023-04-10T05:12:24.846Z,100.00
2023-04-10T05:14:52.515Z,100.00
2023-04-10T05:17:20.405Z,100.00
2023-04-10T05:19:48.048Z,100.00
2023-04-10T05:22:16.920Z,100.00
2023-04-10T05:24:46.316Z,100.00
2023-04-10T05:27:15.359Z,100.00
2023-04-10T05:29:42.980Z,100.00
2023-04-10T05:32:10.930Z,100.00
2023-04-10T05:34:38.519Z,100.00
2023-04-10T05:37:06.265Z,100.00
2023-04-10T05:39:33.912Z,100.00
2023-04-10T05:42:02.002Z,100.00
2023-04-10T05:44:31.874Z,100.00
2023-04-10T05:46:59.491Z,100.00
2023-04-10T05:49:27.486Z,100.00
2023-04-10T05:51:55.143Z,100.00
2023-04-10T05:54:22.849Z,100.00
2023-04-10T05:56:50.543Z,100.00
2023-04-10T05:59:18.189Z,100.00
2023-04-10T06:01:47.619Z,100.00
2023-04-10T06:04:15.509Z,100.00
2023-04-10T06:06:43.779Z,100.00
2023-04-10T06:09:11.378Z,100.00
2023-04-10T06:11:39.056Z,100.00
2023-04-10T06:14:06.678Z,100.00
2023-04-10T06:16:34.572Z,100.00
2023-04-10T06:19:04.451Z,100.00
2023-04-10T06:21:32.117Z,100.00
2023-04-10T06:23:59.810Z,100.00
2023-04-10T06:26:27.417Z,100.00
2023-04-10T06:28:55.383Z,100.00
2023-04-10T06:31:23.518Z,100.00
2023-04-10T06:33:51.518Z,100.00
2023-04-10T06:36:20.634Z,100.00
2023-04-10T06:38:48.387Z,100.00
2023-04-10T06:41:16.303Z,100.00
2023-04-10T06:43:43.954Z,100.00
2023-04-10T06:46:11.736Z,100.00
2023-04-10T06:48:39.874Z,100.00
2023-04-10T06:51:08.198Z,100.00
2023-04-10T06:53:37.198Z,100.00
2023-04-10T06:56:05.286Z,100.00
2023-04-10T06:58:33.088Z,100.00
2023-04-10T07:01:04.323Z,100.00
2023-04-10T07:03:32.484Z,97.92
2023-04-10T07:06:01.954Z,97.22
2023-04-10T07:08:29.735Z,97.67
2023-04-10T07:10:59.016Z,93.46
2023-04-10T07:13:26.775Z,87.10
2023-04-10T07:15:54.471Z,83.33
2023-04-10T07:18:22.192Z,90.33
2023-04-10T07:20:50.084Z,88.99
2023-04-10T07:23:17.679Z,84.59
2023-04-10T07:25:45.675Z,84.09
2023-04-10T07:28:14.657Z,86.88
2023-04-10T07:30:42.294Z,85.34
2023-04-10T07:33:10.063Z,84.63
2023-04-10T07:35:37.827Z,89.16
2023-04-10T07:38:05.513Z,88.02
2023-04-10T07:40:33.129Z,83.37
2023-04-10T07:43:00.801Z,84.26
2023-04-10T07:45:29.870Z,87.05
2023-04-10T07:47:59.625Z,87.29
2023-04-10T07:50:27.511Z,88.28
2023-04-10T07:52:55.225Z,87.33
2023-04-10T07:55:23.200Z,85.52
2023-04-10T07:57:52.213Z,87.33
2023-04-10T08:00:20.221Z,79.01
2023-04-10T08:02:49.297Z,75.89
2023-04-10T08:05:17.188Z,74.62
2023-04-10T08:07:45.735Z,75.67
2023-04-10T08:10:13.492Z,75.97
2023-04-10T08:12:41.135Z,73.43
2023-04-10T08:15:09.442Z,74.34
2023-04-10T08:17:37.078Z,72.46
2023-04-10T08:20:07.253Z,76.24
2023-04-10T08:22:34.987Z,73.92
2023-04-10T08:25:02.746Z,75.03
2023-04-10T08:27:31.026Z,76.15
2023-04-10T08:29:58.640Z,76.20
2023-04-10T08:32:27.612Z,75.55
2023-04-10T08:34:55.419Z,77.23
2023-04-10T08:37:24.420Z,76.25
2023-04-10T08:39:51.973Z,74.19
2023-04-10T08:42:19.932Z,71.06
2023-04-10T08:44:49.971Z,69.54
2023-04-10T08:47:21.573Z,70.62
2023-04-10T08:49:54.820Z,69.23
2023-04-10T08:52:26.049Z,70.87
2023-04-10T08:54:55.985Z,71.26
2023-04-10T08:57:26.878Z,71.90
2023-04-10T08:59:54.642Z,68.40
2023-04-10T09:02:23.231Z,70.01
2023-04-10T09:04:54.584Z,66.69
2023-04-10T09:07:24.095Z,66.22
2023-04-10T09:09:51.703Z,66.39
2023-04-10T09:12:19.379Z,66.92
2023-04-10T09:14:49.730Z,63.64
2023-04-10T09:17:19.564Z,63.80
2023-04-10T09:19:48.457Z,61.79
2023-04-10T09:22:17.440Z,61.38
2023-04-10T09:24:48.236Z,61.50
2023-04-10T09:27:31.293Z,58.64
2023-04-10T09:29:59.364Z,58.80
2023-04-10T09:32:38.554Z,56.68
2023-04-10T09:35:07.250Z,56.12
2023-04-10T09:37:35.700Z,57.57
2023-04-10T09:40:05.890Z,57.49
2023-04-10T09:42:34.515Z,54.39
2023-04-10T09:45:02.484Z,53.94
2023-04-10T09:47:30.822Z,54.05
2023-04-10T09:50:00.666Z,51.65
2023-04-10T09:52:30.216Z,53.22
2023-04-10T09:54:59.609Z,50.81
2023-04-10T09:57:31.222Z,51.41
2023-04-10T10:00:01.252Z,51.16
2023-04-10T10:02:31.418Z,49.67
2023-04-10T10:05:01.331Z,50.11
2023-04-10T10:07:30.783Z,49.28
2023-04-10T10:09:59.577Z,48.12
2023-04-10T10:12:35.181Z,46.49
2023-04-10T10:15:10.146Z,47.37
2023-04-10T10:17:44.526Z,45.58
2023-04-10T10:20:14.798Z,44.87
2023-04-10T10:22:43.187Z,45.92
2023-04-10T10:25:11.588Z,47.32
2023-04-10T10:27:42.659Z,45.96
2023-04-10T10:30:25.314Z,45.50
2023-04-10T10:32:58.711Z,45.47
2023-04-10T10:35:29.700Z,46.03
2023-04-10T10:38:01.276Z,44.53
2023-04-10T10:40:33.305Z,43.99
2023-04-10T10:43:09.372Z,44.99
2023-04-10T10:45:45.202Z,45.19
2023-04-10T10:48:13.042Z,45.46
2023-04-10T10:50:58.745Z,44.13
2023-04-10T10:53:47.478Z,43.34
2023-04-10T10:56:37.240Z,43.84
2023-04-10T10:59:06.274Z,42.00
2023-04-10T11:01:34.003Z,42.15
2023-04-10T11:04:02.282Z,41.86
2023-04-10T11:06:53.070Z,42.15
2023-04-10T11:09:48.025Z,40.96
2023-04-10T11:12:16.366Z,40.96
2023-04-10T11:14:47.111Z,40.70
2023-04-10T11:17:34.759Z,41.05
2023-04-10T11:20:03.449Z,40.47
2023-04-10T11:22:31.273Z,40.03
2023-04-10T11:25:01.807Z,39.06
2023-04-10T11:27:48.664Z,39.30
2023-04-10T11:30:31.742Z,39.50
2023-04-10T11:33:00.516Z,39.66
2023-04-10T11:35:28.733Z,40.40
2023-04-10T11:38:12.802Z,38.76
2023-04-10T11:40:56.216Z,38.52
2023-04-10T11:43:24.053Z,39.10
2023-04-10T11:46:00.922Z,38.60
2023-04-10T11:48:29.293Z,38.65
2023-04-10T11:50:57.118Z,38.40
2023-04-10T11:53:24.766Z,37.76
2023-04-10T11:55:52.405Z,36.03
2023-04-10T11:58:24.219Z,37.27
2023-04-10T12:01:04.157Z,37.17
2023-04-10T12:03:39.224Z,37.08
2023-04-10T12:06:12.495Z,37.18
2023-04-10T12:08:41.684Z,36.99
2023-04-10T12:11:11.206Z,35.68
2023-04-10T12:13:39.371Z,36.15
2023-04-10T12:16:10.697Z,36.96
2023-04-10T12:18:39.148Z,37.49
2023-04-10T12:21:08.600Z,37.23
2023-04-10T12:23:39.089Z,36.99
2023-04-10T12:26:09.977Z,37.13
2023-04-10T12:28:38.488Z,38.14
2023-04-10T12:31:06.837Z,38.00
2023-04-10T12:33:36.092Z,38.25
2023-04-10T12:36:04.054Z,38.09
2023-04-10T12:38:41.892Z,38.04
2023-04-10T12:41:11.215Z,39.08
2023-04-10T12:43:40.161Z,38.23
2023-04-10T12:46:09.764Z,39.47
2023-04-10T12:48:38.717Z,39.75
2023-04-10T12:51:06.758Z,39.57
2023-04-10T12:53:44.816Z,39.30
2023-04-10T12:56:13.534Z,39.29
2023-04-10T12:58:42.677Z,40.31
2023-04-10T13:01:11.112Z,39.77
2023-04-10T13:03:40.438Z,39.70
2023-04-10T13:06:09.250Z,39.65
2023-04-10T13:08:37.354Z,38.93
2023-04-10T13:11:05.811Z,38.71
2023-04-10T13:13:33.488Z,38.74
2023-04-10T13:16:01.302Z,39.35
2023-04-10T13:18:29.293Z,39.67
2023-04-10T13:20:58.196Z,39.27
2023-04-10T13:23:25.834Z,38.97
2023-04-10T13:25:53.535Z,39.52
2023-04-10T13:28:21.532Z,39.67
2023-04-10T13:30:49.280Z,38.81
2023-04-10T13:33:16.956Z,38.35
2023-04-10T13:35:44.749Z,38.96
2023-04-10T13:38:13.716Z,39.11
2023-04-10T13:40:41.304Z,38.78
2023-04-10T13:43:09.283Z,38.44
2023-04-10T13:45:36.917Z,38.70
2023-04-10T13:48:07.114Z,39.55
2023-04-10T13:50:34.945Z,38.46
2023-04-10T13:53:02.832Z,38.25
2023-04-10T13:55:31.769Z,38.81
2023-04-10T13:57:59.691Z,38.87
2023-04-10T14:00:27.772Z,38.79
2023-04-10T14:02:55.572Z,38.16
2023-04-10T14:05:23.341Z,38.10
2023-04-10T14:07:51.847Z,38.33
2023-04-10T14:10:20.240Z,38.37
2023-04-10T14:12:49.246Z,38.67
2023-04-10T14:15:16.885Z,37.64
2023-04-10T14:17:44.547Z,37.46
2023-04-10T14:20:13.258Z,38.22
2023-04-10T14:22:41.057Z,38.21
2023-04-10T14:25:13.709Z,38.61
2023-04-10T14:27:41.625Z,38.19
2023-04-10T14:30:11.297Z,37.03
2023-04-10T14:32:40.192Z,37.61
2023-04-10T14:35:09.026Z,37.73
2023-04-10T14:37:36.668Z,36.99
2023-04-10T14:40:05.634Z,37.42
2023-04-10T14:42:33.257Z,37.86
2023-04-10T14:45:00.965Z,37.07
2023-04-10T14:47:29.997Z,37.50
2023-04-10T14:49:57.696Z,37.60
2023-04-10T14:52:25.396Z,37.51
2023-04-10T14:54:53.180Z,38.20
2023-04-10T14:57:20.810Z,38.15
2023-04-10T14:59:48.462Z,37.88
2023-04-10T15:02:16.106Z,38.39
2023-04-10T15:04:45.117Z,37.47
2023-04-10T15:07:14.596Z,37.50
2023-04-10T15:09:43.744Z,37.53
2023-04-10T15:12:11.416Z,37.26
2023-04-10T15:14:38.976Z,37.33
2023-04-10T15:17:06.596Z,37.55
2023-04-10T15:19:34.236Z,37.05
2023-04-10T15:22:03.489Z,36.87
2023-04-10T15:24:37.025Z,37.53
2023-04-10T15:27:11.024Z,37.41
2023-04-10T15:29:39.870Z,38.22
2023-04-10T15:32:07.948Z,37.45
2023-04-10T15:34:35.550Z,38.22
2023-04-10T15:37:04.626Z,37.38
2023-04-10T15:39:32.224Z,37.58
2023-04-10T15:42:00.253Z,37.67
2023-04-10T15:44:27.966Z,38.67
2023-04-10T15:46:55.590Z,38.20
2023-04-10T15:49:33.726Z,38.80
2023-04-10T15:52:06.789Z,38.82
2023-04-10T15:54:35.079Z,38.90
2023-04-10T15:57:02.990Z,38.67
2023-04-10T15:59:30.757Z,39.28
2023-04-10T16:01:58.441Z,39.72
2023-04-10T16:04:26.269Z,40.15
2023-04-10T16:06:55.949Z,40.43
2023-04-10T16:09:26.463Z,40.78
2023-04-10T16:11:54.864Z,40.92
2023-04-10T16:14:23.365Z,41.27
2023-04-10T16:16:51.247Z,41.66
2023-04-10T16:19:18.885Z,41.71
2023-04-10T16:21:46.872Z,42.24
2023-04-10T16:24:14.908Z,42.27
2023-04-10T16:26:43.904Z,42.58
2023-04-10T16:29:11.542Z,43.06
2023-04-10T16:31:39.204Z,43.38
2023-04-10T16:34:07.300Z,43.48
2023-04-10T16:36:34.927Z,43.83
2023-04-10T16:39:02.553Z,43.95
2023-04-10T16:41:30.181Z,44.25
2023-04-10T16:43:59.163Z,44.49
2023-04-10T16:46:27.153Z,44.98
2023-04-10T16:48:55.191Z,45.33
2023-04-10T16:51:24.340Z,45.72
2023-04-10T16:53:52.090Z,46.10
2023-04-10T16:56:19.681Z,46.76
2023-04-10T16:58:47.398Z,46.75
2023-04-10T17:01:19.230Z,46.85
2023-04-10T17:03:48.250Z,47.35
2023-04-10T17:06:16.568Z,47.82
2023-04-10T17:08:44.466Z,48.05
2023-04-10T17:11:13.408Z,48.42
2023-04-10T17:13:41.339Z,48.66
2023-04-10T17:16:10.569Z,48.83
2023-04-10T17:18:39.708Z,49.11
2023-04-10T17:21:11.514Z,49.64
2023-04-10T17:23:40.040Z,50.35
2023-04-10T17:26:13.001Z,50.54
2023-04-10T17:28:40.832Z,50.80
2023-04-10T17:31:08.972Z,51.43
2023-04-10T17:33:36.669Z,52.32
2023-04-10T17:36:06.119Z,52.36
2023-04-10T17:38:33.736Z,53.03
2023-04-10T17:41:01.377Z,53.05
2023-04-10T17:43:29.018Z,53.14
2023-04-10T17:45:56.636Z,53.61
2023-04-10T17:48:24.444Z,53.92
2023-04-10T17:50:52.483Z,54.80
2023-04-10T17:53:21.543Z,54.61
2023-04-10T17:55:49.162Z,55.50
2023-04-10T17:58:17.145Z,54.94
2023-04-10T18:00:44.705Z,55.32
2023-04-10T18:03:12.410Z,55.33
2023-04-10T18:05:40.166Z,55.27
2023-04-10T18:08:08.598Z,55.14
2023-04-10T18:10:37.719Z,55.17
2023-04-10T18:13:05.606Z,55.82
2023-04-10T18:15:33.533Z,55.94
2023-04-10T18:18:01.189Z,56.37
2023-04-10T18:20:28.905Z,57.11
2023-04-10T18:22:56.580Z,57.28
2023-04-10T18:25:24.197Z,57.46
2023-04-10T18:28:12.945Z,58.23
2023-04-10T18:30:40.902Z,59.03
2023-04-10T18:33:11.050Z,58.16
2023-04-10T18:35:39.253Z,59.34
2023-04-10T18:38:07.376Z,60.11
2023-04-10T18:40:36.647Z,60.21
2023-04-10T18:43:05.806Z,60.28
2023-04-10T18:45:34.209Z,61.34
2023-04-10T18:48:01.976Z,60.96
2023-04-10T18:50:29.916Z,61.76
2023-04-10T18:52:57.546Z,61.72
2023-04-10T18:55:25.379Z,62.23
2023-04-10T18:57:53.225Z,62.64
2023-04-10T19:00:22.581Z,62.29
2023-04-10T19:02:50.382Z,63.11
2023-04-10T19:05:18.246Z,62.69
2023-04-10T19:07:56.523Z,63.84
2023-04-10T19:10:29.085Z,64.01
2023-04-10T19:12:57.300Z,64.59
2023-04-10T19:15:26.434Z,64.43
2023-04-10T19:17:54.552Z,66.57
2023-04-10T19:20:48.868Z,68.19
2023-04-10T19:23:11.048Z,70.93
2023-04-10T19:25:38.646Z,77.27
2023-04-10T19:28:07.062Z,83.62
2023-04-10T19:30:36.025Z,90.75
2023-04-10T19:33:03.786Z,100.00
2023-04-10T19:35:31.524Z,100.00
2023-04-10T19:37:59.245Z,100.00
2023-04-10T19:40:26.927Z,100.00
2023-04-10T19:42:54.621Z,100.00
2023-04-10T19:45:23.646Z,100.00
2023-04-10T19:47:52.885Z,100.00
2023-04-10T19:50:20.809Z,100.00
2023-04-10T19:52:48.499Z,100.00
2023-04-10T19:55:18.697Z,100.00
2023-04-10T19:57:46.636Z,100.00
2023-04-10T20:00:15.006Z,100.00
2023-04-10T20:02:42.911Z,100.00
2023-04-10T20:05:12.187Z,100.00
2023-04-10T20:07:40.603Z,100.00
2023-04-10T20:10:09.409Z,100.00
2023-04-10T20:12:37.071Z,100.00
2023-04-10T20:15:05.982Z,100.00
2023-04-10T20:17:33.628Z,100.00
2023-04-10T20:20:01.323Z,100.00
2023-04-10T20:22:30.367Z,100.00
2023-04-10T20:24:58.411Z,100.00
2023-04-10T20:27:26.197Z,100.00
2023-04-10T20:29:53.786Z,100.00
2023-04-10T20:32:21.421Z,100.00
2023-04-10T20:34:49.030Z,100.00
2023-04-10T20:37:21.576Z,100.00
2023-04-10T20:39:50.688Z,100.00
2023-04-10T20:42:18.279Z,100.00
2023-04-10T20:44:45.872Z,100.00
2023-04-10T20:47:13.923Z,100.00
2023-04-10T20:49:41.609Z,100.00
2023-04-10T20:52:09.775Z,100.00
2023-04-10T20:54:37.436Z,100.00
2023-04-10T20:57:06.463Z,100.00
2023-04-10T20:59:35.957Z,100.00
2023-04-10T21:02:03.749Z,100.00
2023-04-10T21:04:32.617Z,100.00
2023-04-10T21:07:00.391Z,100.00
2023-04-10T21:09:28.108Z,100.00
2023-04-10T21:11:57.251Z,100.00
2023-04-10T21:14:26.223Z,100.00
2023-04-10T21:16:54.120Z,100.00
2023-04-10T21:19:21.791Z,100.00
2023-04-10T21:21:49.383Z,100.00
2023-04-10T21:24:17.059Z,100.00
2023-04-10T21:26:45.072Z,100.00
2023-04-10T21:29:12.691Z,100.00
2023-04-10T21:31:41.641Z,100.00
2023-04-10T21:34:10.233Z,100.00
2023-04-10T21:36:37.840Z,100.00
2023-04-10T21:39:09.076Z,100.00
2023-04-10T21:41:37.349Z,100.00
2023-04-10T21:44:05.193Z,100.00
2023-04-10T21:46:33.385Z,100.00
2023-04-10T21:49:02.967Z,100.00
2023-04-10T21:51:31.049Z,100.00
2023-04-10T21:53:58.737Z,100.00
2023-04-10T21:56:26.363Z,100.00
2023-04-10T21:58:54.416Z,100.00
2023-04-10T22:01:22.338Z,100.00
2023-04-10T22:03:50.584Z,100.00
2023-04-10T22:06:19.725Z,100.00
2023-04-10T22:08:47.329Z,100.00
2023-04-10T22:11:14.992Z,100.00
2023-04-10T22:13:42.622Z,100.00
2023-04-10T22:16:10.344Z,100.00
2023-04-10T22:18:37.967Z,100.00
2023-04-10T22:21:06.071Z,100.00
2023-04-10T22:23:35.047Z,100.00
2023-04-10T22:26:02.778Z,100.00
2023-04-10T22:28:30.384Z,100.00
2023-04-10T22:30:58.064Z,100.00
2023-04-10T22:33:25.805Z,100.00
2023-04-10T22:35:53.662Z,100.00
2023-04-10T22:38:21.316Z,100.00
2023-04-10T22:40:50.243Z,100.00
2023-04-10T22:43:17.812Z,100.00
2023-04-10T22:45:45.440Z,100.00
2023-04-10T22:48:13.115Z,100.00
2023-04-10T22:50:40.990Z,100.00
2023-04-10T22:53:09.991Z,100.00
2023-04-10T22:55:38.300Z,100.00
2023-04-10T22:58:07.262Z,100.00
2023-04-10T23:00:35.500Z,100.00
2023-04-10T23:03:03.612Z,100.00
2023-04-10T23:05:32.876Z,100.00
2023-04-10T23:08:00.582Z,100.00
2023-04-10T23:10:28.383Z,100.00
2023-04-10T23:12:55.979Z,100.00
2023-04-10T23:15:25.137Z,100.00
2023-04-10T23:17:52.847Z,100.00
2023-04-10T23:20:20.706Z,100.00
2023-04-10T23:22:48.691Z,100.00
2023-04-10T23:25:16.468Z,100.00
2023-04-10T23:27:44.117Z,100.00
2023-04-10T23:30:12.206Z,100.00
2023-04-10T23:32:41.265Z,100.00
2023-04-10T23:35:09.564Z,100.00
2023-04-10T23:37:37.271Z,100.00
2023-04-10T23:40:05.879Z,100.00
2023-04-10T23:42:33.498Z,100.00
2023-04-10T23:45:01.155Z,100.00
2023-04-10T23:47:28.876Z,100.00
2023-04-10T23:49:58.482Z,100.00
2023-04-10T23:52:26.200Z,100.00
2023-04-10T23:54:56.596Z,100.00
2023-04-10T23:57:24.262Z,100.00
2023-04-10T23:59:52.230Z,100.00
